Time;durP1;ratioP1;P1;durP2;ratioP2;P2;SDS_P1;SDS_P2;PMS_P1;PMS_P2;Temp;Humidity;BMP_temperature;BMP_pressure;BME280_temperature;BME280_humidity;BME280_pressure;Samples;Min_cycle;Max_cycle;Signal;HPM_P1;HPM_P2
2022/06/03 00:02:08;;;;;;;;;;;14.40;97.10;;;;;;4998820;28;19945;-79
2022/06/03 00:04:55;;;;;;;;;;;15.10;97.50;;;;;;4998580;28;19933;-79
2022/06/03 00:07:29;;;;;;;;;;;14.30;97.00;;;;;;4999844;28;19926;-79
2022/06/03 00:10:16;;;;;;;;;;;14.30;97.10;;;;;;5001472;28;19934;-79
2022/06/03 00:13:03;;;;;;;;;;;14.30;97.80;;;;;;4969898;28;19942;-79
2022/06/03 00:15:46;;;;;;;;;;;14.30;97.30;;;;;;4995270;28;20516;-79
2022/06/03 00:18:26;;;;;;;;;;;14.20;97.30;;;;;;4983332;28;19930;-79
2022/06/03 00:21:04;;;;;;;;;;;14.20;97.40;;;;;;4984453;28;19926;-80
2022/06/03 00:23:39;;;;;;;;;;;14.30;97.60;;;;;;4984300;28;19930;-79
2022/06/03 00:26:09;;;;;;;;;;;14.40;97.70;;;;;;4996683;28;19934;-79
2022/06/03 00:28:37;;;;;;;;;;;14.30;97.50;;;;;;4986373;28;19945;-79
2022/06/03 00:31:15;;;;;;;;;;;14.20;97.80;;;;;;4996210;28;19930;-79
2022/06/03 00:34:02;;;;;;;;;;;14.20;97.60;;;;;;4984491;28;19938;-79
2022/06/03 00:36:48;;;;;;;;;;;14.20;97.70;;;;;;5001229;28;19937;-79
2022/06/03 00:39:28;;;;;;;;;;;14.10;97.60;;;;;;5018582;28;19930;-79
2022/06/03 00:42:07;;;;;;;;;;;14.10;97.70;;;;;;4979388;28;19926;-80
2022/06/03 00:44:54;;;;;;;;;;;14.00;97.70;;;;;;4987546;28;19926;-80
2022/06/03 00:47:54;;;;;;;;;;;14.00;97.90;;;;;;5003917;28;19929;-79
2022/06/03 00:50:40;;;;;;;;;;;14.00;97.80;;;;;;4961790;28;20022;-79
2022/06/03 00:53:10;;;;;;;;;;;14.50;98.10;;;;;;5003569;28;19926;-80
2022/06/03 00:55:51;;;;;;;;;;;13.90;98.10;;;;;;4984392;28;19941;-80
2022/06/03 00:58:24;;;;;;;;;;;13.90;98.10;;;;;;5000940;28;19941;-79
2022/06/03 01:01:04;;;;;;;;;;;13.90;98.20;;;;;;5000866;28;19941;-79
2022/06/03 01:03:31;;;;;;;;;;;13.80;98.10;;;;;;4995436;28;19930;-79
2022/06/03 01:05:59;;;;;;;;;;;13.90;98.50;;;;;;5005955;28;19926;-79
2022/06/03 01:08:38;;;;;;;;;;;13.80;98.50;;;;;;5021838;28;20232;-79
2022/06/03 01:11:09;;;;;;;;;;;13.80;98.20;;;;;;5019930;28;20327;-79
2022/06/03 01:13:48;;;;;;;;;;;13.70;98.50;;;;;;5019633;28;19940;-79
2022/06/03 01:16:31;;;;;;;;;;;14.20;98.50;;;;;;5001898;28;19929;-78
2022/06/03 01:19:20;;;;;;;;;;;13.70;98.40;;;;;;4992905;28;19926;-79
2022/06/03 01:22:13;;;;;;;;;;;13.60;98.50;;;;;;5000529;28;20236;-79
2022/06/03 01:25:01;;;;;;;;;;;13.70;98.60;;;;;;5004370;28;19926;-80
2022/06/03 01:27:50;;;;;;;;;;;13.60;98.60;;;;;;5000367;28;20009;-79
2022/06/03 01:30:24;;;;;;;;;;;13.50;98.70;;;;;;4996859;28;19930;-80
2022/06/03 01:33:00;;;;;;;;;;;12.30;98.50;;;;;;5003541;28;19934;-78
2022/06/03 01:35:45;;;;;;;;;;;13.40;98.90;;;;;;5018793;28;19940;-80
2022/06/03 01:38:25;;;;;;;;;;;13.40;99.00;;;;;;5005483;28;19941;-79
2022/06/03 01:40:58;;;;;;;;;;;13.40;99.00;;;;;;4990087;28;19926;-80
2022/06/03 01:43:38;;;;;;;;;;;13.40;99.30;;;;;;5004091;28;19926;-79
2022/06/03 01:46:28;;;;;;;;;;;13.30;99.30;;;;;;4993254;28;19930;-79
2022/06/03 01:49:10;;;;;;;;;;;13.30;99.30;;;;;;4995570;28;19929;-79
2022/06/03 01:51:58;;;;;;;;;;;13.30;99.40;;;;;;5004630;28;19926;-80
2022/06/03 01:54:44;;;;;;;;;;;13.20;99.40;;;;;;5002309;28;19945;-80
2022/06/03 01:57:18;;;;;;;;;;;13.20;99.40;;;;;;5005970;28;19930;-79
2022/06/03 01:59:48;;;;;;;;;;;13.20;99.50;;;;;;4988353;28;19926;-79
2022/06/03 02:02:36;;;;;;;;;;;13.20;99.50;;;;;;5005363;28;20358;-79
2022/06/03 02:05:18;;;;;;;;;;;13.20;99.60;;;;;;5012038;28;19953;-79
2022/06/03 02:08:04;;;;;;;;;;;13.20;99.70;;;;;;4985550;28;19952;-79
2022/06/03 02:10:50;;;;;;;;;;;13.20;99.60;;;;;;5005105;28;19929;-79
2022/06/03 02:13:18;;;;;;;;;;;13.20;99.70;;;;;;4988040;28;19940;-79
2022/06/03 02:16:04;;;;;;;;;;;13.20;99.90;;;;;;5003881;28;19932;-79
2022/06/03 02:19:01;;;;;;;;;;;13.20;99.70;;;;;;4981348;28;19944;-79
2022/06/03 02:21:48;;;;;;;;;;;13.20;99.90;;;;;;4991162;28;20257;-79
2022/06/03 02:24:22;;;;;;;;;;;13.20;99.90;;;;;;4994975;28;19926;-79
2022/06/03 02:26:56;;;;;;;;;;;13.20;99.90;;;;;;4985198;28;19926;-79
2022/06/03 02:32:35;;;;;;;;;;;13.10;99.90;;;;;;4653843;28;10000253;-79
2022/06/03 02:35:08;;;;;;;;;;;13.20;99.90;;;;;;4996002;28;20252;-79
2022/06/03 02:37:36;;;;;;;;;;;13.00;99.90;;;;;;5000094;28;19926;-80
2022/06/03 02:40:17;;;;;;;;;;;13.10;99.90;;;;;;4983101;28;19926;-79
2022/06/03 02:42:45;;;;;;;;;;;13.10;99.90;;;;;;5019028;28;19937;-79
2022/06/03 02:45:36;;;;;;;;;;;13.10;99.90;;;;;;5004685;28;19952;-79
2022/06/03 02:48:13;;;;;;;;;;;13.00;99.90;;;;;;4988566;28;19926;-79
2022/06/03 02:50:53;;;;;;;;;;;13.10;99.90;;;;;;5002591;28;19946;-80
2022/06/03 02:53:39;;;;;;;;;;;13.10;99.90;;;;;;5004862;28;20177;-79
2022/06/03 02:56:16;;;;;;;;;;;13.20;99.90;;;;;;5003121;28;19936;-79
2022/06/03 02:58:50;;;;;;;;;;;13.10;99.90;;;;;;5003534;28;19933;-80
2022/06/03 03:01:30;;;;;;;;;;;14.70;99.90;;;;;;4986963;28;19949;-83
2022/06/03 03:04:10;;;;;;;;;;;13.10;99.90;;;;;;4995028;28;19930;-80
2022/06/03 03:06:47;;;;;;;;;;;13.10;99.90;;;;;;5003034;28;20097;-80
2022/06/03 03:09:23;;;;;;;;;;;13.10;99.90;;;;;;5004662;28;19956;-79
2022/06/03 03:12:10;;;;;;;;;;;13.10;99.90;;;;;;4986151;28;19933;-79
2022/06/03 03:14:44;;;;;;;;;;;13.10;99.90;;;;;;4994993;28;19934;-79
2022/06/03 03:17:21;;;;;;;;;;;13.10;99.90;;;;;;5004106;28;19926;-79
2022/06/03 03:19:52;;;;;;;;;;;13.10;99.90;;;;;;5004267;28;19944;-80
2022/06/03 03:22:38;;;;;;;;;;;13.10;99.90;;;;;;5003934;28;19925;-79
2022/06/03 03:25:09;;;;;;;;;;;12.90;99.90;;;;;;5004582;28;19925;-78
2022/06/03 03:27:56;;;;;;;;;;;13.00;99.90;;;;;;5004760;28;20414;-79
2022/06/03 03:30:29;;;;;;;;;;;13.90;99.90;;;;;;5002848;28;19934;-79
2022/06/03 03:33:14;;;;;;;;;;;13.00;99.90;;;;;;4989200;28;20181;-79
2022/06/03 03:36:00;;;;;;;;;;;13.00;99.90;;;;;;5004482;28;19929;-79
2022/06/03 03:38:48;;;;;;;;;;;13.00;99.90;;;;;;5019758;28;19929;-79
2022/06/03 03:41:20;;;;;;;;;;;13.00;99.90;;;;;;5003151;28;19926;-79
2022/06/03 03:43:49;;;;;;;;;;;13.10;99.90;;;;;;5007294;28;19937;-78
2022/06/03 03:46:29;;;;;;;;;;;13.00;99.90;;;;;;5004877;28;20620;-79
2022/06/03 03:49:27;;;;;;;;;;;13.10;99.90;;;;;;4986334;28;19936;-79
2022/06/03 03:51:55;;;;;;;;;;;13.10;99.90;;;;;;5002859;28;19936;-79
2022/06/03 03:54:42;;;;;;;;;;;13.10;99.90;;;;;;4999986;28;19936;-79
2022/06/03 03:57:09;;;;;;;;;;;12.70;99.90;;;;;;5003801;28;19936;-79
2022/06/03 03:59:39;;;;;;;;;;;13.20;99.90;;;;;;5003691;28;19926;-79
2022/06/03 04:02:20;;;;;;;;;;;13.10;99.90;;;;;;5003454;28;19926;-79
2022/06/03 04:05:00;;;;;;;;;;;13.20;99.90;;;;;;5003610;28;19930;-79
2022/06/03 04:07:48;;;;;;;;;;;13.10;99.90;;;;;;5003725;28;20168;-79
2022/06/03 04:10:35;;;;;;;;;;;13.10;99.90;;;;;;5004995;28;19926;-79
2022/06/03 04:13:26;;;;;;;;;;;13.10;99.90;;;;;;5007631;28;20013;-80
2022/06/03 04:16:13;;;;;;;;;;;13.10;99.90;;;;;;4997327;28;19926;-78
2022/06/03 04:18:47;;;;;;;;;;;13.10;99.90;;;;;;5010408;28;19937;-80
2022/06/03 04:21:32;;;;;;;;;;;13.00;99.90;;;;;;5005972;28;19926;-79
2022/06/03 04:24:18;;;;;;;;;;;13.00;99.90;;;;;;5005483;28;19933;-79
2022/06/03 04:27:05;;;;;;;;;;;13.00;99.90;;;;;;5022377;28;19925;-79
2022/06/03 04:29:51;;;;;;;;;;;13.00;99.90;;;;;;5007182;28;19926;-79
2022/06/03 04:32:37;;;;;;;;;;;13.00;99.90;;;;;;5018810;28;19926;-79
2022/06/03 04:35:31;;;;;;;;;;;13.00;99.90;;;;;;4999734;28;19933;-79
2022/06/03 04:38:18;;;;;;;;;;;12.90;99.90;;;;;;5006934;28;19933;-79
2022/06/03 04:40:45;;;;;;;;;;;12.30;99.90;;;;;;5003881;28;19926;-79
2022/06/03 04:43:19;;;;;;;;;;;12.80;99.90;;;;;;5006616;28;20413;-79
2022/06/03 04:45:50;;;;;;;;;;;12.80;99.90;;;;;;5006222;28;19929;-79
2022/06/03 04:48:50;;;;;;;;;;;12.80;99.90;;;;;;4987878;28;19954;-79
2022/06/03 04:51:36;;;;;;;;;;;12.80;99.90;;;;;;5003390;28;19930;-79
2022/06/03 04:54:27;;;;;;;;;;;12.80;99.90;;;;;;5002314;28;19934;-79
2022/06/03 04:57:14;;;;;;;;;;;12.80;99.90;;;;;;4969741;28;19925;-80
2022/06/03 05:00:00;;;;;;;;;;;13.30;99.90;;;;;;5004447;28;19930;-79
2022/06/03 05:02:46;;;;;;;;;;;12.90;99.90;;;;;;4993921;28;20375;-79
2022/06/03 05:05:17;;;;;;;;;;;12.90;99.90;;;;;;4986505;28;19949;-79
2022/06/03 05:08:05;;;;;;;;;;;12.90;99.90;;;;;;5003011;28;19937;-79
2022/06/03 05:10:39;;;;;;;;;;;11.60;99.90;;;;;;4996516;28;20118;-79
2022/06/03 05:13:43;;;;;;;;;;;12.50;99.90;;;;;;4983510;28;19930;-79
2022/06/03 05:16:10;;;;;;;;;;;13.40;99.90;;;;;;4981821;28;19926;-79
2022/06/03 05:18:48;;;;;;;;;;;13.30;99.90;;;;;;4989384;28;20445;-79
2022/06/03 05:21:26;;;;;;;;;;;13.20;99.90;;;;;;4988394;28;19929;-79
2022/06/03 05:24:13;;;;;;;;;;;13.20;99.90;;;;;;4981918;28;19929;-79
2022/06/03 05:26:41;;;;;;;;;;;13.30;99.90;;;;;;4984312;28;19925;-80
2022/06/03 05:29:27;;;;;;;;;;;13.40;99.90;;;;;;5005683;28;19948;-79
2022/06/03 05:32:10;;;;;;;;;;;13.50;99.90;;;;;;4986824;28;19926;-79
2022/06/03 05:34:41;;;;;;;;;;;13.60;99.90;;;;;;5004072;28;19929;-79
2022/06/03 05:37:12;;;;;;;;;;;13.70;99.90;;;;;;5002929;28;19930;-79
2022/06/03 05:39:46;;;;;;;;;;;13.90;99.90;;;;;;5001965;28;19929;-79
2022/06/03 05:42:31;;;;;;;;;;;14.40;99.90;;;;;;5002614;28;19940;-79
2022/06/03 05:45:07;;;;;;;;;;;14.90;99.90;;;;;;5001632;28;19929;-79
2022/06/03 05:47:35;;;;;;;;;;;14.20;99.90;;;;;;4999325;28;19936;-79
2022/06/03 05:50:03;;;;;;;;;;;14.40;99.90;;;;;;5000754;28;19932;-79
2022/06/03 05:52:50;;;;;;;;;;;14.50;99.90;;;;;;5002507;28;19936;-79
2022/06/03 05:55:21;;;;;;;;;;;14.90;99.90;;;;;;5009383;28;19937;-78
2022/06/03 05:58:08;;;;;;;;;;;14.70;99.90;;;;;;4999879;28;19932;-81
2022/06/03 06:00:51;;;;;;;;;;;15.00;99.90;;;;;;5001113;28;20238;-79
2022/06/03 06:03:37;;;;;;;;;;;14.90;99.90;;;;;;5003796;28;19971;-79
2022/06/03 06:06:06;;;;;;;;;;;14.90;99.90;;;;;;5002302;28;19929;-79
2022/06/03 06:08:35;;;;;;;;;;;14.90;99.90;;;;;;5018418;28;19926;-79
2022/06/03 06:11:05;;;;;;;;;;;14.90;99.90;;;;;;4999148;28;19929;-80
2022/06/03 06:13:39;;;;;;;;;;;15.00;99.90;;;;;;4999665;28;19937;-79
2022/06/03 06:16:09;;;;;;;;;;;15.00;99.90;;;;;;4990786;28;19930;-79
2022/06/03 06:18:56;;;;;;;;;;;15.00;99.90;;;;;;5001767;28;19938;-80
2022/06/03 06:21:23;;;;;;;;;;;15.00;99.90;;;;;;4997928;28;19926;-79
2022/06/03 06:24:01;;;;;;;;;;;14.40;99.90;;;;;;5003157;28;19930;-79
2022/06/03 06:26:33;;;;;;;;;;;15.00;99.90;;;;;;5002203;28;19930;-79
2022/06/03 06:29:16;;;;;;;;;;;15.00;99.90;;;;;;5002235;28;20140;-79
2022/06/03 06:32:02;;;;;;;;;;;15.00;99.90;;;;;;4989925;28;19933;-78
2022/06/03 06:34:33;;;;;;;;;;;14.90;99.90;;;;;;5002029;28;19937;-80
2022/06/03 06:37:02;;;;;;;;;;;14.90;99.90;;;;;;5015419;28;19929;-79
2022/06/03 06:39:44;;;;;;;;;;;14.90;99.90;;;;;;5024382;28;19929;-79
2022/06/03 06:42:20;;;;;;;;;;;13.20;99.90;;;;;;5011387;28;19925;-79
2022/06/03 06:45:01;;;;;;;;;;;15.00;99.90;;;;;;5013554;28;20282;-80
2022/06/03 06:47:34;;;;;;;;;;;15.70;99.90;;;;;;5003484;28;19940;-79
2022/06/03 06:50:18;;;;;;;;;;;15.00;99.90;;;;;;5010252;28;19925;-79
2022/06/03 06:53:04;;;;;;;;;;;15.10;99.90;;;;;;5014910;28;19933;-79
2022/06/03 06:55:51;;;;;;;;;;;15.20;99.90;;;;;;5016152;28;19930;-79
2022/06/03 06:58:29;;;;;;;;;;;15.20;99.90;;;;;;4997373;28;19941;-79
2022/06/03 07:00:59;;;;;;;;;;;15.40;99.90;;;;;;4965502;28;20150;-78
2022/06/03 07:03:27;;;;;;;;;;;15.40;99.90;;;;;;4984997;28;19930;-79
2022/06/03 07:06:06;;;;;;;;;;;15.50;99.90;;;;;;5001823;28;19926;-80
2022/06/03 07:08:50;;;;;;;;;;;15.50;99.90;;;;;;4999561;28;19926;-79
2022/06/03 07:11:24;;;;;;;;;;;15.50;99.90;;;;;;5001947;28;19930;-80
2022/06/03 07:13:57;;;;;;;;;;;15.50;99.90;;;;;;5012778;28;19926;-80
2022/06/03 07:22:25;;;;;;;;;;;15.70;99.90;;;;;;5016071;28;19929;-79
2022/06/03 07:25:01;;;;;;;;;;;15.80;99.90;;;;;;5010594;28;20584;-80
2022/06/03 07:27:34;;;;;;;;;;;15.90;99.90;;;;;;5012323;28;19925;-79
2022/06/03 07:30:08;;;;;;;;;;;16.00;99.90;;;;;;5009207;28;19929;-80
2022/06/03 07:32:38;;;;;;;;;;;16.10;99.90;;;;;;5008131;28;19932;-79
2022/06/03 07:35:12;;;;;;;;;;;16.10;99.90;;;;;;5009522;28;19933;-79
2022/06/03 07:37:47;;;;;;;;;;;16.30;99.90;;;;;;5006509;28;19933;-79
2022/06/03 07:40:24;;;;;;;;;;;16.30;99.90;;;;;;5002090;28;19929;-79
2022/06/03 07:42:56;;;;;;;;;;;16.40;99.90;;;;;;4984430;28;20096;-79
2022/06/03 07:45:26;;;;;;;;;;;16.50;99.90;;;;;;5012683;28;19944;-79
2022/06/03 07:48:04;;;;;;;;;;;16.60;99.90;;;;;;5020320;28;19925;-80
2022/06/03 07:50:33;;;;;;;;;;;16.70;99.90;;;;;;5018475;28;20299;-79
2022/06/03 07:53:05;;;;;;;;;;;16.80;99.90;;;;;;5017426;28;19925;-79
2022/06/03 07:55:35;;;;;;;;;;;16.90;99.90;;;;;;5018886;28;20296;-79
2022/06/03 07:58:08;;;;;;;;;;;17.00;99.90;;;;;;5004012;28;19929;-80
2022/06/03 08:00:38;;;;;;;;;;;17.10;99.90;;;;;;5033739;28;19929;-79
2022/06/03 08:03:15;;;;;;;;;;;17.20;99.90;;;;;;5014261;28;19933;-79
2022/06/03 08:05:44;;;;;;;;;;;17.30;99.90;;;;;;5018642;28;19930;-80
2022/06/03 08:11:09;;;;;;;;;;;17.60;99.90;;;;;;5018633;28;20234;-79
2022/06/03 08:13:40;;;;;;;;;;;17.70;99.90;;;;;;5033125;28;19933;-79
2022/06/03 08:16:16;;;;;;;;;;;17.80;99.90;;;;;;5011656;28;20371;-79
2022/06/03 08:18:45;;;;;;;;;;;17.90;99.90;;;;;;5020336;28;19941;-79
2022/06/03 08:21:15;;;;;;;;;;;18.00;99.90;;;;;;5013849;28;20232;-78
2022/06/03 08:23:44;;;;;;;;;;;18.20;99.90;;;;;;5016453;28;19932;-79
2022/06/03 08:26:16;;;;;;;;;;;18.40;99.40;;;;;;5014870;28;19926;-79
2022/06/03 08:28:52;;;;;;;;;;;18.50;99.30;;;;;;5012193;28;19935;-79
2022/06/03 08:31:22;;;;;;;;;;;18.60;98.90;;;;;;5007507;28;19926;-79
2022/06/03 08:33:52;;;;;;;;;;;18.70;98.80;;;;;;5017634;28;19930;-80
2022/06/03 08:36:24;;;;;;;;;;;18.80;98.50;;;;;;5006965;28;19926;-79
2022/06/03 08:38:57;;;;;;;;;;;18.90;98.30;;;;;;5015381;28;19933;-79
2022/06/03 08:41:33;;;;;;;;;;;19.00;98.20;;;;;;5015841;28;19937;-79
2022/06/03 08:44:23;;;;;;;;;;;19.10;98.00;;;;;;5017537;28;19930;-79
2022/06/03 08:46:51;;;;;;;;;;;19.20;97.60;;;;;;5016818;28;19926;-79
2022/06/03 08:49:25;;;;;;;;;;;19.30;97.60;;;;;;5018673;28;19934;-78
2022/06/03 08:52:00;;;;;;;;;;;19.50;97.10;;;;;;5020588;28;19925;-78
2022/06/03 08:54:37;;;;;;;;;;;19.60;96.80;;;;;;5006002;28;19925;-78
2022/06/03 08:57:25;;;;;;;;;;;19.70;96.90;;;;;;5028730;28;19929;-78
2022/06/03 09:00:00;;;;;;;;;;;19.80;96.40;;;;;;5015159;28;20000;-80
2022/06/03 09:02:37;;;;;;;;;;;20.00;96.60;;;;;;5014757;28;19940;-79
2022/06/03 09:05:15;;;;;;;;;;;20.10;96.70;;;;;;4998398;28;19925;-78
2022/06/03 09:07:48;;;;;;;;;;;20.20;96.20;;;;;;5031565;28;19932;-78
2022/06/03 09:10:24;;;;;;;;;;;20.30;95.50;;;;;;5011099;28;20470;-78
2022/06/03 09:13:09;;;;;;;;;;;20.40;95.60;;;;;;5007844;28;19937;-78
2022/06/03 09:15:43;;;;;;;;;;;20.50;94.90;;;;;;5008883;28;20487;-79
2022/06/03 09:18:33;;;;;;;;;;;20.70;95.40;;;;;;5013060;28;20011;-79
2022/06/03 09:21:03;;;;;;;;;;;20.90;95.00;;;;;;5012268;28;19933;-79
2022/06/03 09:23:52;;;;;;;;;;;21.00;94.60;;;;;;5017570;28;19933;-79
2022/06/03 09:26:32;;;;;;;;;;;21.10;94.70;;;;;;5001646;28;19930;-78
2022/06/03 09:29:02;;;;;;;;;;;21.40;94.40;;;;;;5016206;28;20299;-78
2022/06/03 09:31:32;;;;;;;;;;;21.40;94.30;;;;;;5007414;28;19926;-79
2022/06/03 09:34:07;;;;;;;;;;;21.40;94.00;;;;;;5012505;28;19925;-79
2022/06/03 09:36:35;;;;;;;;;;;21.50;94.20;;;;;;4996786;28;19926;-78
2022/06/03 09:39:08;;;;;;;;;;;21.60;93.50;;;;;;5015681;28;19932;-79
2022/06/03 09:41:38;;;;;;;;;;;21.60;93.10;;;;;;5013660;28;19934;-78
2022/06/03 09:44:09;;;;;;;;;;;21.00;93.10;;;;;;4999142;28;20970;-80
2022/06/03 09:46:38;;;;;;;;;;;21.80;91.70;;;;;;5012954;28;19926;-79
2022/06/03 09:49:07;;;;;;;;;;;21.90;91.00;;;;;;5012300;28;19940;-77
2022/06/03 09:52:07;;;;;;;;;;;22.10;91.30;;;;;;5012589;28;19929;-79
2022/06/03 09:54:37;;;;;;;;;;;22.20;90.30;;;;;;5014077;28;19925;-78
2022/06/03 09:57:20;;;;;;;;;;;22.40;88.60;;;;;;5015234;28;19926;-78
2022/06/03 09:59:57;;;;;;;;;;;22.60;89.20;;;;;;4998804;28;20395;-78
2022/06/03 10:02:26;;;;;;;;;;;22.70;87.60;;;;;;5009283;28;19933;-77
2022/06/03 10:04:55;;;;;;;;;;;23.00;88.50;;;;;;4982226;28;19934;-79
2022/06/03 10:07:26;;;;;;;;;;;23.10;87.00;;;;;;5003197;28;19930;-78
2022/06/03 10:12:59;;;;;;;;;;;23.30;81.40;;;;;;5002727;28;19948;-77
2022/06/03 10:15:40;;;;;;;;;;;23.20;82.70;;;;;;5010297;28;19955;-77
2022/06/03 10:18:19;;;;;;;;;;;23.20;82.20;;;;;;5027626;28;19949;-78
2022/06/03 10:20:49;;;;;;;;;;;23.10;81.90;;;;;;5015345;28;19929;-78
2022/06/03 10:23:20;;;;;;;;;;;23.10;81.40;;;;;;5027203;28;20003;-78
2022/06/03 10:26:09;;;;;;;;;;;23.00;80.20;;;;;;5014150;28;19932;-77
2022/06/03 10:28:38;;;;;;;;;;;23.00;82.40;;;;;;4665549;28;9999985;-78
2022/06/03 10:31:16;;;;;;;;;;;23.10;82.40;;;;;;5012262;28;19941;-78
2022/06/03 10:33:56;;;;;;;;;;;23.20;82.10;;;;;;5014220;28;19944;-78
2022/06/03 10:36:29;;;;;;;;;;;23.20;79.80;;;;;;5013938;28;19933;-78
2022/06/03 10:38:59;;;;;;;;;;;23.30;78.90;;;;;;5016384;28;20463;-78
2022/06/03 10:41:41;;;;;;;;;;;23.30;77.60;;;;;;5014586;28;19925;-78
2022/06/03 10:44:16;;;;;;;;;;;23.40;77.00;;;;;;4975298;28;20033;-77
2022/06/03 10:46:52;;;;;;;;;;;23.50;75.50;;;;;;4992606;28;19929;-77
2022/06/03 10:49:22;;;;;;;;;;;23.60;75.80;;;;;;4993870;28;20009;-78
2022/06/03 11:03:30;;;;;;;;;;;24.40;76.50;;;;;;4997202;28;19926;-79
2022/06/03 11:06:04;;;;;;;;;;;24.60;75.60;;;;;;4997097;28;20029;-78
2022/06/03 11:08:51;;;;;;;;;;;24.90;76.10;;;;;;4980795;28;19937;-80
2022/06/03 11:11:30;;;;;;;;;;;24.90;76.50;;;;;;4998207;28;19926;-78
2022/06/03 11:14:15;;;;;;;;;;;25.00;73.70;;;;;;4996594;28;20395;-79
2022/06/03 11:16:48;;;;;;;;;;;25.00;73.90;;;;;;4995369;28;19926;-80
2022/06/03 11:19:18;;;;;;;;;;;25.00;73.60;;;;;;5011381;28;19941;-78
2022/06/03 11:21:46;;;;;;;;;;;25.10;72.00;;;;;;4996903;28;19953;-79
2022/06/03 11:24:14;;;;;;;;;;;25.20;72.20;;;;;;4996596;28;19933;-78
2022/06/03 11:26:43;;;;;;;;;;;25.30;74.40;;;;;;4979679;28;19934;-78
2022/06/03 11:29:23;;;;;;;;;;;25.40;74.50;;;;;;5014588;28;19934;-79
2022/06/03 11:31:53;;;;;;;;;;;25.50;73.80;;;;;;4997891;28;19937;-78
2022/06/03 11:34:26;;;;;;;;;;;25.60;73.70;;;;;;4995898;28;19933;-77
2022/06/03 11:37:01;;;;;;;;;;;25.60;74.00;;;;;;4980495;28;19933;-79
2022/06/03 11:39:39;;;;;;;;;;;25.60;74.10;;;;;;4995986;28;19933;-79
2022/06/03 11:42:10;;;;;;;;;;;25.60;74.30;;;;;;4997877;28;19926;-79
2022/06/03 11:44:46;;;;;;;;;;;25.40;73.80;;;;;;4998143;28;20403;-80
2022/06/03 11:47:14;;;;;;;;;;;25.40;73.60;;;;;;4997794;28;19941;-79
2022/06/03 11:49:42;;;;;;;;;;;25.30;73.60;;;;;;4979151;28;19937;-79
2022/06/03 11:52:10;;;;;;;;;;;25.30;72.60;;;;;;4983071;28;19941;-78
2022/06/03 11:54:39;;;;;;;;;;;25.30;71.90;;;;;;4997799;28;19934;-81
2022/06/03 11:57:07;;;;;;;;;;;25.30;71.50;;;;;;5000669;28;19930;-78
2022/06/03 11:59:36;;;;;;;;;;;25.30;73.20;;;;;;4981424;28;19926;-79
2022/06/03 12:02:19;;;;;;;;;;;25.40;71.70;;;;;;4999230;28;19930;-79
2022/06/03 12:04:47;;;;;;;;;;;25.40;70.90;;;;;;4998691;28;20225;-77
2022/06/03 12:07:16;;;;;;;;;;;25.40;71.30;;;;;;4996778;28;19926;-77
2022/06/03 12:09:53;;;;;;;;;;;25.30;70.30;;;;;;4997705;28;19930;-78
2022/06/03 12:15:33;;;;;;;;;;;25.20;70.80;;;;;;4995370;28;20466;-79
2022/06/03 12:18:09;;;;;;;;;;;25.20;70.90;;;;;;4996307;28;19929;-79
2022/06/03 12:20:47;;;;;;;;;;;25.10;69.10;;;;;;4990356;28;19929;-78
2022/06/03 12:23:20;;;;;;;;;;;25.10;70.30;;;;;;4999318;28;19937;-79
2022/06/03 12:25:52;;;;;;;;;;;25.20;70.20;;;;;;4982561;28;19933;-78
2022/06/03 12:28:52;;;;;;;;;;;25.20;69.70;;;;;;4761120;28;10000429;-79
2022/06/03 12:31:35;;;;;;;;;;;25.40;70.10;;;;;;4966940;28;19941;-79
2022/06/03 12:34:09;;;;;;;;;;;25.50;69.00;;;;;;5014663;28;19930;-79
2022/06/03 12:36:52;;;;;;;;;;;25.50;68.90;;;;;;4997807;28;19949;-79
2022/06/03 12:39:20;;;;;;;;;;;25.70;68.90;;;;;;5005128;28;19925;-78
2022/06/03 12:41:48;;;;;;;;;;;25.90;68.60;;;;;;5006438;28;19940;-78
2022/06/03 12:44:46;;;;;;;;;;;25.90;67.90;;;;;;5000646;28;19932;-79
2022/06/03 12:47:26;;;;;;;;;;;25.70;67.70;;;;;;4992064;28;19944;-80
2022/06/03 12:50:12;;;;;;;;;;;25.40;67.80;;;;;;5000266;28;19933;-79
2022/06/03 12:52:41;;;;;;;;;;;25.20;68.10;;;;;;5000048;28;19934;-77
2022/06/03 12:55:12;;;;;;;;;;;25.00;68.50;;;;;;5000777;28;19926;-77
2022/06/03 12:57:47;;;;;;;;;;;24.80;67.60;;;;;;5001258;28;19925;-76
2022/06/03 13:00:19;;;;;;;;;;;24.70;69.00;;;;;;5000885;28;20288;-76
2022/06/03 13:03:16;;;;;;;;;;;24.80;68.70;;;;;;5001473;28;20291;-78
2022/06/03 13:05:47;;;;;;;;;;;25.00;68.70;;;;;;4996663;28;19921;-77
2022/06/03 13:08:33;;;;;;;;;;;25.30;68.00;;;;;;5004199;28;19934;-78
2022/06/03 13:11:30;;;;;;;;;;;25.40;67.70;;;;;;5021798;28;19925;-77
2022/06/03 13:13:58;;;;;;;;;;;25.90;67.20;;;;;;4991955;28;19930;-77
2022/06/03 13:16:27;;;;;;;;;;;26.00;67.20;;;;;;5004341;28;19941;-80
2022/06/03 13:18:57;;;;;;;;;;;26.20;67.20;;;;;;4987742;28;20327;-76
2022/06/03 13:21:47;;;;;;;;;;;26.40;67.80;;;;;;5004053;28;19925;-77
2022/06/03 13:24:34;;;;;;;;;;;26.20;66.90;;;;;;5019843;28;19936;-77
2022/06/03 13:27:33;;;;;;;;;;;26.00;67.10;;;;;;5003135;28;20387;-76
2022/06/03 13:30:13;;;;;;;;;;;26.00;67.40;;;;;;4979938;28;19926;-77
2022/06/03 13:32:52;;;;;;;;;;;26.00;67.60;;;;;;4968176;28;19933;-77
2022/06/03 13:35:22;;;;;;;;;;;26.10;67.20;;;;;;4999899;28;19937;-74
2022/06/03 13:38:10;;;;;;;;;;;26.20;66.90;;;;;;5002369;28;20186;-77
2022/06/03 13:40:38;;;;;;;;;;;26.20;66.70;;;;;;5001975;28;19930;-77
2022/06/03 13:43:09;;;;;;;;;;;26.20;67.00;;;;;;4998805;28;19926;-77
2022/06/03 13:45:45;;;;;;;;;;;26.00;67.00;;;;;;5002203;28;19941;-77
2022/06/03 13:48:25;;;;;;;;;;;25.90;67.90;;;;;;5001856;28;19940;-77
2022/06/03 13:50:55;;;;;;;;;;;25.90;67.10;;;;;;5017015;28;19930;-77
2022/06/03 13:53:26;;;;;;;;;;;25.70;66.20;;;;;;5001210;28;19958;-76
2022/06/03 13:55:55;;;;;;;;;;;25.80;66.60;;;;;;5001499;28;19926;-77
2022/06/03 13:58:27;;;;;;;;;;;25.80;65.40;;;;;;5001379;28;19936;-77
2022/06/03 14:01:05;;;;;;;;;;;25.80;65.40;;;;;;4996646;28;19930;-77
2022/06/03 14:03:42;;;;;;;;;;;25.80;64.70;;;;;;5017083;28;19926;-78
2022/06/03 14:06:17;;;;;;;;;;;25.70;64.20;;;;;;4987317;28;19926;-79
2022/06/03 14:08:46;;;;;;;;;;;25.50;64.90;;;;;;4995262;28;19925;-78
2022/06/03 14:11:15;;;;;;;;;;;25.20;66.30;;;;;;5006455;28;19932;-77
2022/06/03 14:14:02;;;;;;;;;;;24.90;65.60;;;;;;5001850;28;19941;-77
2022/06/03 14:16:39;;;;;;;;;;;24.80;66.30;;;;;;5000217;28;20490;-78
2022/06/03 14:19:07;;;;;;;;;;;24.50;67.50;;;;;;4997124;28;19933;-77
2022/06/03 14:21:52;;;;;;;;;;;24.40;68.70;;;;;;5002089;28;19933;-80
2022/06/03 14:24:22;;;;;;;;;;;24.20;67.30;;;;;;5018294;28;19929;-77
2022/06/03 14:27:05;;;;;;;;;;;24.00;67.40;;;;;;5015445;28;19946;-77
2022/06/03 14:29:37;;;;;;;;;;;23.70;67.90;;;;;;4994210;28;19932;-77
2022/06/03 14:32:16;;;;;;;;;;;23.50;68.90;;;;;;4984027;28;19933;-77
2022/06/03 14:34:53;;;;;;;;;;;23.30;69.10;;;;;;4984297;28;19938;-77
2022/06/03 14:37:28;;;;;;;;;;;23.20;69.00;;;;;;4998208;28;19934;-79
2022/06/03 14:40:05;;;;;;;;;;;23.20;69.70;;;;;;5002557;28;19930;-77
2022/06/03 14:42:37;;;;;;;;;;;23.90;70.80;;;;;;4989859;28;19941;-77
2022/06/03 14:45:07;;;;;;;;;;;23.30;71.10;;;;;;4998220;28;19926;-80
2022/06/03 14:47:38;;;;;;;;;;;23.20;69.70;;;;;;4981264;28;19945;-77
2022/06/03 14:50:17;;;;;;;;;;;23.50;69.40;;;;;;5006188;28;20073;-76
2022/06/03 14:52:55;;;;;;;;;;;23.50;70.00;;;;;;4997231;28;19934;-77
2022/06/03 14:55:38;;;;;;;;;;;23.60;70.00;;;;;;4980675;28;19929;-77
2022/06/03 14:58:22;;;;;;;;;;;23.60;69.80;;;;;;4982098;28;19930;-77
2022/06/03 15:00:50;;;;;;;;;;;23.60;70.10;;;;;;4995575;28;20013;-78
2022/06/03 15:03:27;;;;;;;;;;;23.50;70.60;;;;;;4992832;28;19925;-77
2022/06/03 15:05:59;;;;;;;;;;;23.50;70.80;;;;;;5007989;28;19933;-78
2022/06/03 15:08:38;;;;;;;;;;;23.40;70.80;;;;;;5015384;28;19944;-77
2022/06/03 15:11:09;;;;;;;;;;;23.30;71.40;;;;;;4994862;28;19933;-76
2022/06/03 15:14:06;;;;;;;;;;;23.20;71.20;;;;;;4998601;28;19941;-76
2022/06/03 15:16:54;;;;;;;;;;;22.90;70.80;;;;;;4999293;28;20386;-76
2022/06/03 15:19:52;;;;;;;;;;;22.70;71.10;;;;;;4998057;28;19940;-76
2022/06/03 15:22:47;;;;;;;;;;;22.40;71.10;;;;;;4999069;28;19925;-77
2022/06/03 15:25:17;;;;;;;;;;;22.30;72.10;;;;;;4999390;28;19934;-77
2022/06/03 15:27:56;;;;;;;;;;;22.20;72.00;;;;;;4999466;28;19930;-76
2022/06/03 15:30:32;;;;;;;;;;;22.10;72.60;;;;;;5001983;28;19929;-76
2022/06/03 15:33:14;;;;;;;;;;;22.90;73.70;;;;;;4985523;28;19941;-76
2022/06/03 15:35:43;;;;;;;;;;;21.90;73.80;;;;;;4994332;28;19937;-77
2022/06/03 15:38:13;;;;;;;;;;;21.80;73.50;;;;;;4649966;28;10000215;-76
2022/06/03 15:40:46;;;;;;;;;;;21.70;74.50;;;;;;4996155;28;19926;-77
2022/06/03 15:43:37;;;;;;;;;;;21.60;74.90;;;;;;4997967;28;19930;-80
2022/06/03 15:46:05;;;;;;;;;;;23.20;76.90;;;;;;5012044;28;19926;-77